Time,TemperatureF,DewpointF,PressureIn,WindDirection,WindDirectionDegrees,WindSpeedMPH,WindSpeedGustMPH,Humidity,HourlyPrecipIn,Conditions,Clouds,dailyrainin,SoftwareType,DateUTC
2013-12-18 00:03:00,20.7,7.5,30.24,West,270,0.0,0.0,56,0.00,,,0.00,VWS V14.01,2013-12-18 06:03:00,
2013-12-18 00:09:00,20.3,7.5,30.24,West,270,0.0,0.0,57,0.00,,,0.00,VWS V14.01,2013-12-18 06:09:00,
2013-12-18 00:15:00,19.9,7.2,30.24,West,270,0.0,0.0,57,0.00,,,0.00,VWS V14.01,2013-12-18 06:15:00,
2013-12-18 00:20:00,19.9,7.2,30.24,West,270,0.0,0.0,57,0.00,,,0.00,VWS V14.01,2013-12-18 06:20:00,
2013-12-18 00:26:00,19.6,7.2,30.24,West,270,0.0,0.0,58,0.00,,,0.00,VWS V14.01,2013-12-18 06:26:00,
2013-12-18 00:32:00,19.2,7.2,30.24,West,270,0.0,0.0,59,0.00,,,0.00,VWS V14.01,2013-12-18 06:32:00,
2013-12-18 00:38:00,18.9,6.9,30.24,West,270,0.0,0.0,59,0.00,,,0.00,VWS V14.01,2013-12-18 06:38:00,
2013-12-18 00:43:00,18.5,6.6,30.24,West,270,0.0,0.0,59,0.00,,,0.00,VWS V14.01,2013-12-18 06:43:00,
2013-12-18 00:49:00,18.1,6.2,30.24,West,270,0.0,0.0,59,0.00,,,0.00,VWS V14.01,2013-12-18 06:49:00,
2013-12-18 00:55:00,18.1,6.2,30.24,West,270,0.0,0.0,59,0.00,,,0.00,VWS V14.01,2013-12-18 06:55:00,
2013-12-18 01:01:00,17.8,5.9,30.24,West,270,0.0,0.0,59,0.00,,,0.00,VWS V14.01,2013-12-18 07:01:00,
2013-12-18 01:07:00,17.8,5.9,30.24,West,270,0.0,0.0,59,0.00,,,0.00,VWS V14.01,2013-12-18 07:07:00,
2013-12-18 01:12:00,17.4,5.9,30.24,West,270,0.0,0.0,60,0.00,,,0.00,VWS V14.01,2013-12-18 07:12:00,
2013-12-18 01:18:00,17.4,5.9,30.24,West,270,0.0,0.0,60,0.00,,,0.00,VWS V14.01,2013-12-18 07:18:00,
2013-12-18 01:24:00,17.1,5.9,30.24,West,270,0.0,0.0,61,0.00,,,0.00,VWS V14.01,2013-12-18 07:24:00,
2013-12-18 01:30:00,17.1,5.9,30.24,West,270,0.0,0.0,61,0.00,,,0.00,VWS V14.01,2013-12-18 07:30:00,
2013-12-18 01:35:00,17.2,6.1,30.24,West,270,0.0,0.0,61,0.00,,,0.00,VWS V14.01,2013-12-18 07:35:00,
2013-12-18 01:41:00,17.4,6.6,30.24,West,270,0.0,0.0,62,0.00,,,0.00,VWS V14.01,2013-12-18 07:41:00,
2013-12-18 01:47:00,17.4,6.6,30.24,West,270,0.0,0.0,62,0.00,,,0.00,VWS V14.01,2013-12-18 07:47:00,
2013-12-18 01:53:00,17.2,6.8,30.24,West,270,0.0,0.0,63,0.00,,,0.00,VWS V14.01,2013-12-18 07:53:00,
2013-12-18 01:58:00,17.1,6.7,30.24,West,270,0.0,0.0,63,0.00,,,0.00,VWS V14.01,2013-12-18 07:58:00,
2013-12-18 02:03:00,16.9,6.5,30.24,West,270,0.0,0.0,63,0.00,,,0.00,VWS V14.01,2013-12-18 08:03:00,
2013-12-18 02:08:00,16.9,6.5,30.24,West,270,0.0,0.0,63,0.00,,,0.00,VWS V14.01,2013-12-18 08:08:00,
2013-12-18 02:13:00,16.7,6.3,30.24,West,270,0.0,0.0,63,0.00,,,0.00,VWS V14.01,2013-12-18 08:13:00,
2013-12-18 02:18:00,16.5,6.1,30.24,West,270,0.0,0.0,63,0.00,,,0.00,VWS V14.01,2013-12-18 08:18:00,
2013-12-18 02:23:00,16.3,6.3,30.24,West,270,0.0,0.0,64,0.00,,,0.00,VWS V14.01,2013-12-18 08:23:00,
2013-12-18 04:23:00,16.3,6.3,30.24,West,270,0.0,0.0,64,0.00,,,0.00,VWS V14.01,2013-12-18 10:23:00,
2013-12-18 04:24:00,18.5,8.4,30.24,West,270,0.0,0.0,64,0.00,,,0.00,VWS V14.01,2013-12-18 10:24:00,
2013-12-18 06:00:00,18.5,8.4,30.24,West,270,0.0,0.0,64,0.00,,,0.00,VWS V14.01,2013-12-18 12:00:00,
2013-12-18 06:05:00,20.8,7.6,30.18,West,270,0.0,0.0,56,0.00,,,0.00,VWS V14.01,2013-12-18 12:05:00,
2013-12-18 06:11:00,20.8,7.6,30.18,West,270,0.0,0.0,56,0.00,,,0.00,VWS V14.01,2013-12-18 12:11:00,
2013-12-18 06:17:00,20.8,7.6,30.18,West,270,0.0,0.0,56,0.00,,,0.00,VWS V14.01,2013-12-18 12:17:00,
2013-12-18 06:23:00,20.8,7.6,30.18,West,270,0.0,0.0,56,0.00,,,0.00,VWS V14.01,2013-12-18 12:23:00,
2013-12-18 06:29:00,20.7,7.1,30.18,West,270,0.0,0.0,55,0.00,,,0.00,VWS V14.01,2013-12-18 12:29:00,
2013-12-18 06:34:00,20.7,7.1,30.18,West,270,0.0,0.0,55,0.00,,,0.00,VWS V14.01,2013-12-18 12:34:00,
2013-12-18 06:40:00,20.7,7.1,30.18,West,270,0.0,0.0,55,0.00,,,0.00,VWS V14.01,2013-12-18 12:40:00,
2013-12-18 06:46:00,20.5,6.9,30.18,West,270,0.0,0.0,55,0.00,,,0.00,VWS V14.01,2013-12-18 12:46:00,
2013-12-18 06:52:00,20.5,6.9,30.18,West,270,0.0,0.0,55,0.00,,,0.00,VWS V14.01,2013-12-18 12:52:00,
2013-12-18 06:58:00,20.7,7.1,30.18,West,270,0.0,0.0,55,0.00,,,0.00,VWS V14.01,2013-12-18 12:58:00,
2013-12-18 07:03:00,21.0,7.4,30.18,West,270,0.0,0.0,55,0.00,,,0.00,VWS V14.01,2013-12-18 13:03:00,
2013-12-18 07:09:00,21.2,7.6,30.18,SE,135,3.1,4.0,55,0.00,,,0.00,VWS V14.01,2013-12-18 13:09:00,
2013-12-18 07:15:00,21.2,7.6,30.18,SSE,158,0.0,0.0,55,0.00,,,0.00,VWS V14.01,2013-12-18 13:15:00,
2013-12-18 07:21:00,21.4,7.3,30.15,ESE,112,0.0,0.0,54,0.00,,,0.00,VWS V14.01,2013-12-18 13:21:00,
2013-12-18 07:26:00,21.4,7.3,30.15,SE,135,0.0,0.0,54,0.00,,,0.00,VWS V14.01,2013-12-18 13:26:00,
2013-12-18 07:32:00,21.9,7.8,30.15,SE,135,0.0,0.0,54,0.00,,,0.00,VWS V14.01,2013-12-18 13:32:00,
2013-12-18 07:38:00,22.5,7.9,30.15,SE,135,4.0,4.0,53,0.00,,,0.00,VWS V14.01,2013-12-18 13:38:00,
2013-12-18 07:44:00,22.6,8.1,30.15,SSE,158,3.1,3.6,53,0.00,,,0.00,VWS V14.01,2013-12-18 13:44:00,
2013-12-18 07:50:00,23.0,8.0,30.15,SSE,158,3.1,4.9,52,0.00,,,0.00,VWS V14.01,2013-12-18 13:50:00,
2013-12-18 07:55:00,23.4,7.9,30.12,South,180,4.9,5.4,51,0.00,,,0.00,VWS V14.01,2013-12-18 13:55:00,
2013-12-18 08:01:00,23.5,7.7,30.12,SSE,158,3.6,4.9,50,0.00,,,0.00,VWS V14.01,2013-12-18 14:01:00,
2013-12-18 08:07:00,23.9,7.5,30.12,SE,135,3.1,3.1,49,0.00,,,0.00,VWS V14.01,2013-12-18 14:07:00,
2013-12-18 08:13:00,24.8,7.9,30.15,SSE,158,3.6,3.6,48,0.00,,,0.00,VWS V14.01,2013-12-18 14:13:00,
2013-12-18 08:18:00,24.8,7.9,30.15,SSE,158,4.0,5.8,48,0.00,,,0.00,VWS V14.01,2013-12-18 14:18:00,
2013-12-18 08:24:00,25.3,7.9,30.15,SE,135,3.6,4.9,47,0.00,,,0.00,VWS V14.01,2013-12-18 14:24:00,
2013-12-18 08:30:00,25.3,7.9,30.15,SE,135,3.1,3.1,47,0.00,,,0.00,VWS V14.01,2013-12-18 14:30:00,
2013-12-18 08:36:00,27.0,8.0,30.12,SSE,158,3.6,3.6,44,0.00,,,0.00,VWS V14.01,2013-12-18 14:36:00,
2013-12-18 08:42:00,27.0,8.0,30.12,SSE,158,4.0,4.0,44,0.00,,,0.00,VWS V14.01,2013-12-18 14:42:00,
2013-12-18 08:47:00,27.0,8.0,30.12,SSE,158,4.0,4.0,44,0.00,,,0.00,VWS V14.01,2013-12-18 14:47:00,
2013-12-18 08:53:00,30.2,9.4,30.12,SE,135,0.0,0.0,41,0.00,,,0.00,VWS V14.01,2013-12-18 14:53:00,
2013-12-18 08:59:00,31.1,9.6,30.12,SSE,158,3.1,3.1,40,0.00,,,0.00,VWS V14.01,2013-12-18 14:59:00,
2013-12-18 09:05:00,32.2,9.4,30.12,SSE,158,4.9,5.4,38,0.00,,,0.00,VWS V14.01,2013-12-18 15:05:00,
2013-12-18 09:10:00,32.9,9.5,30.12,SSE,158,2.7,5.4,37,0.00,,,0.00,VWS V14.01,2013-12-18 15:10:00,
2013-12-18 09:16:00,34.2,8.7,30.12,SSE,158,6.3,6.3,34,0.00,,,0.00,VWS V14.01,2013-12-18 15:16:00,
2013-12-18 09:22:00,34.2,8.7,30.12,South,180,6.7,6.7,34,0.00,,,0.00,VWS V14.01,2013-12-18 15:22:00,
2013-12-18 09:28:00,34.7,9.2,30.12,SSE,158,3.6,3.6,34,0.00,,,0.00,VWS V14.01,2013-12-18 15:28:00,
2013-12-18 09:34:00,34.7,9.2,30.12,SSW,202,5.4,5.8,34,0.00,,,0.00,VWS V14.01,2013-12-18 15:34:00,
2013-12-18 09:39:00,35.2,9.0,30.12,SSE,158,7.2,7.2,33,0.00,,,0.00,VWS V14.01,2013-12-18 15:39:00,
2013-12-18 09:45:00,35.4,9.2,30.12,SSW,202,6.3,6.3,33,0.00,,,0.00,VWS V14.01,2013-12-18 15:45:00,
2013-12-18 09:51:00,35.6,8.7,30.12,SSE,158,7.6,7.6,32,0.00,,,0.00,VWS V14.01,2013-12-18 15:51:00,
2013-12-18 09:57:00,35.8,9.5,30.09,SSE,158,5.4,5.4,33,0.00,,,0.00,VWS V14.01,2013-12-18 15:57:00,
2013-12-18 10:03:00,35.6,10.0,30.09,SSE,158,5.4,5.4,34,0.00,,,0.00,VWS V14.01,2013-12-18 16:03:00,
2013-12-18 10:08:00,35.8,10.8,30.09,SSE,158,5.8,5.8,35,0.00,,,0.00,VWS V14.01,2013-12-18 16:08:00,
2013-12-18 10:14:00,36.1,11.1,30.09,SSE,158,8.7,8.7,35,0.00,,,0.00,VWS V14.01,2013-12-18 16:14:00,
2013-12-18 10:20:00,36.1,11.1,30.09,SSE,158,8.7,8.7,35,0.00,,,0.00,VWS V14.01,2013-12-18 16:20:00,
2013-12-18 10:26:00,36.1,11.1,30.09,SE,135,5.8,8.7,35,0.00,,,0.00,VWS V14.01,2013-12-18 16:26:00,
2013-12-18 10:31:00,37.9,12.7,30.09,SSE,158,6.7,6.7,35,0.00,,,0.00,VWS V14.01,2013-12-18 16:31:00,
2013-12-18 10:37:00,37.9,12.7,30.09,SSE,158,6.7,6.7,35,0.00,,,0.00,VWS V14.01,2013-12-18 16:37:00,
2013-12-18 10:43:00,38.5,13.9,30.09,SSE,158,6.7,6.7,36,0.00,,,0.00,VWS V14.01,2013-12-18 16:43:00,
2013-12-18 10:49:00,39.0,15.0,30.06,SSE,158,8.1,8.1,37,0.00,,,0.00,VWS V14.01,2013-12-18 16:49:00,
2013-12-18 10:55:00,39.4,14.7,30.06,SSW,202,5.8,8.1,36,0.00,,,0.00,VWS V14.01,2013-12-18 16:55:00,
2013-12-18 11:00:00,39.7,15.0,30.06,SE,135,10.1,10.1,36,0.00,,,0.00,VWS V14.01,2013-12-18 17:00:00,
2013-12-18 11:06:00,39.7,15.0,30.03,SE,135,10.1,10.1,36,0.00,,,0.00,VWS V14.01,2013-12-18 17:06:00,
2013-12-18 11:12:00,40.6,16.4,30.03,SSE,158,5.8,5.8,37,0.00,,,0.00,VWS V14.01,2013-12-18 17:12:00,
2013-12-18 11:18:00,41.2,16.3,30.03,SSE,158,8.3,8.3,36,0.00,,,0.00,VWS V14.01,2013-12-18 17:18:00,
2013-12-18 11:24:00,41.2,16.3,30.03,SSE,158,8.3,8.3,36,0.00,,,0.00,VWS V14.01,2013-12-18 17:24:00,
2013-12-18 11:29:00,41.2,16.3,30.03,SSE,158,6.3,6.7,36,0.00,,,0.00,VWS V14.01,2013-12-18 17:29:00,
2013-12-18 11:35:00,42.4,18.0,30.03,SSE,158,4.0,4.0,37,0.00,,,0.00,VWS V14.01,2013-12-18 17:35:00,
2013-12-18 11:41:00,42.4,18.0,30.03,SSE,158,3.6,3.6,37,0.00,,,0.00,VWS V14.01,2013-12-18 17:41:00,
2013-12-18 11:47:00,43.3,18.2,30.03,SSE,158,3.6,4.9,36,0.00,,,0.00,VWS V14.01,2013-12-18 17:47:00,
2013-12-18 11:52:00,43.5,18.4,30.03,South,180,5.8,7.6,36,0.00,,,0.00,VWS V14.01,2013-12-18 17:52:00,
2013-12-18 11:58:00,42.8,18.4,30.00,South,180,6.3,7.6,37,0.00,,,0.00,VWS V14.01,2013-12-18 17:58:00,
2013-12-18 12:04:00,42.8,18.4,30.00,SE,135,6.7,7.6,37,0.00,,,0.00,VWS V14.01,2013-12-18 18:04:00,
2013-12-18 12:10:00,42.8,19.0,30.00,South,180,5.8,5.8,38,0.00,,,0.00,VWS V14.01,2013-12-18 18:10:00,
2013-12-18 12:16:00,42.8,19.0,30.00,South,180,3.6,7.2,38,0.00,,,0.00,VWS V14.01,2013-12-18 18:16:00,
2013-12-18 12:21:00,42.8,19.0,30.00,South,180,0.0,3.6,38,0.00,,,0.00,VWS V14.01,2013-12-18 18:21:00,
2013-12-18 12:27:00,43.3,19.5,30.00,SSW,202,4.5,4.5,38,0.00,,,0.00,VWS V14.01,2013-12-18 18:27:00,
2013-12-18 12:33:00,43.3,19.5,29.97,SSE,158,3.6,4.0,38,0.00,,,0.00,VWS V14.01,2013-12-18 18:33:00,
2013-12-18 12:39:00,43.0,19.1,29.97,SSE,158,7.6,10.1,38,0.00,,,0.00,VWS V14.01,2013-12-18 18:39:00,
2013-12-18 12:44:00,43.0,19.1,29.97,SSE,158,5.4,7.6,38,0.00,,,0.00,VWS V14.01,2013-12-18 18:44:00,
2013-12-18 12:50:00,43.0,19.1,29.97,SSE,158,6.3,6.3,38,0.00,,,0.00,VWS V14.01,2013-12-18 18:50:00,
2013-12-18 12:56:00,43.9,19.9,29.97,South,180,2.7,5.4,38,0.00,,,0.00,VWS V14.01,2013-12-18 18:56:00,
2013-12-18 13:02:00,43.9,19.9,29.97,South,180,2.7,5.4,38,0.00,,,0.00,VWS V14.01,2013-12-18 19:02:00,
2013-12-18 13:08:00,44.8,20.7,29.97,SSE,158,8.7,8.7,38,0.00,,,0.00,VWS V14.01,2013-12-18 19:08:00,
2013-12-18 13:13:00,45.1,21.1,29.94,SSE,158,4.0,8.7,38,0.00,,,0.00,VWS V14.01,2013-12-18 19:13:00,
2013-12-18 13:19:00,45.1,21.1,29.94,South,180,2.7,5.8,38,0.00,,,0.00,VWS V14.01,2013-12-18 19:19:00,
2013-12-18 13:25:00,45.1,21.1,29.94,South,180,2.7,5.8,38,0.00,,,0.00,VWS V14.01,2013-12-18 19:25:00,
2013-12-18 13:31:00,45.3,21.2,29.94,SSW,202,4.0,4.0,38,0.00,,,0.00,VWS V14.01,2013-12-18 19:31:00,
2013-12-18 13:37:00,45.3,21.2,29.94,South,180,2.7,4.0,38,0.00,,,0.00,VWS V14.01,2013-12-18 19:37:00,
2013-12-18 13:42:00,45.5,21.4,29.94,SSW,202,6.3,7.6,38,0.00,,,0.00,VWS V14.01,2013-12-18 19:42:00,
2013-12-18 13:48:00,45.5,21.4,29.94,South,180,5.8,5.8,38,0.00,,,0.00,VWS V14.01,2013-12-18 19:48:00,
2013-12-18 13:54:00,45.5,21.4,29.94,SSE,158,2.7,2.7,38,0.00,,,0.00,VWS V14.01,2013-12-18 19:54:00,
2013-12-18 14:00:00,45.5,21.4,29.94,SSE,158,2.7,2.7,38,0.00,,,0.00,VWS V14.01,2013-12-18 20:00:00,
2013-12-18 14:05:00,46.0,21.9,29.91,SSE,158,3.6,6.3,38,0.00,,,0.00,VWS V14.01,2013-12-18 20:05:00,
2013-12-18 14:11:00,46.2,22.0,29.91,SSW,202,3.6,7.2,38,0.00,,,0.00,VWS V14.01,2013-12-18 20:11:00,
2013-12-18 14:17:00,46.2,22.0,29.91,South,180,5.8,5.8,38,0.00,,,0.00,VWS V14.01,2013-12-18 20:17:00,
2013-12-18 14:23:00,46.0,21.9,29.91,SSE,158,5.8,5.8,38,0.00,,,0.00,VWS V14.01,2013-12-18 20:23:00,
2013-12-18 14:29:00,46.0,21.9,29.91,SSW,202,5.4,5.8,38,0.00,,,0.00,VWS V14.01,2013-12-18 20:29:00,
2013-12-18 14:34:00,46.0,21.9,29.91,SSW,202,5.4,5.8,38,0.00,,,0.00,VWS V14.01,2013-12-18 20:34:00,
2013-12-18 14:40:00,46.0,21.9,29.91,SSE,158,5.4,8.1,38,0.00,,,0.00,VWS V14.01,2013-12-18 20:40:00,
2013-12-18 14:46:00,46.0,21.9,29.91,SSE,158,5.4,8.1,38,0.00,,,0.00,VWS V14.01,2013-12-18 20:46:00,
2013-12-18 14:52:00,48.0,23.6,29.88,SSE,158,9.2,9.2,38,0.00,,,0.00,VWS V14.01,2013-12-18 20:52:00,
2013-12-18 14:58:00,48.0,23.6,29.88,SSE,158,9.2,9.2,38,0.00,,,0.00,VWS V14.01,2013-12-18 20:58:00,
2013-12-18 15:03:00,47.7,23.3,29.88,ESE,112,2.2,9.2,38,0.00,,,0.00,VWS V14.01,2013-12-18 21:03:00,
2013-12-18 15:09:00,47.3,23.0,29.88,South,180,5.8,5.8,38,0.00,,,0.00,VWS V14.01,2013-12-18 21:09:00,
2013-12-18 15:15:00,47.3,23.0,29.88,SSE,158,6.7,6.7,38,0.00,,,0.00,VWS V14.01,2013-12-18 21:15:00,
2013-12-18 15:21:00,47.3,23.6,29.88,SSE,158,3.1,6.7,39,0.00,,,0.00,VWS V14.01,2013-12-18 21:21:00,
2013-12-18 15:26:00,47.3,23.6,29.88,SSE,158,4.0,4.9,39,0.00,,,0.00,VWS V14.01,2013-12-18 21:26:00,
2013-12-18 15:32:00,47.3,23.6,29.88,South,180,3.1,4.0,39,0.00,,,0.00,VWS V14.01,2013-12-18 21:32:00,
2013-12-18 15:38:00,47.3,23.6,29.88,SSE,158,2.7,3.1,39,0.00,,,0.00,VWS V14.01,2013-12-18 21:38:00,
2013-12-18 15:44:00,47.3,23.6,29.88,SSE,158,6.3,6.3,39,0.00,,,0.00,VWS V14.01,2013-12-18 21:44:00,
2013-12-18 15:50:00,47.5,23.8,29.88,South,180,2.7,6.3,39,0.00,,,0.00,VWS V14.01,2013-12-18 21:50:00,
2013-12-18 15:55:00,47.5,23.8,29.88,SSE,158,7.2,7.2,39,0.00,,,0.00,VWS V14.01,2013-12-18 21:55:00,
2013-12-18 16:01:00,47.1,23.5,29.88,SSE,158,5.8,5.8,39,0.00,,,0.00,VWS V14.01,2013-12-18 22:01:00,
2013-12-18 16:07:00,46.8,23.1,29.85,SSE,158,0.0,0.0,39,0.00,,,0.00,VWS V14.01,2013-12-18 22:07:00,
2013-12-18 16:13:00,46.8,23.1,29.85,SSE,158,0.0,0.0,39,0.00,,,0.00,VWS V14.01,2013-12-18 22:13:00,
2013-12-18 16:18:00,46.4,22.8,29.85,South,180,4.0,5.8,39,0.00,,,0.00,VWS V14.01,2013-12-18 22:18:00,
2013-12-18 16:24:00,46.0,23.1,29.85,South,180,3.1,5.4,40,0.00,,,0.00,VWS V14.01,2013-12-18 22:24:00,
2013-12-18 16:30:00,46.0,23.1,29.85,South,180,3.1,5.4,40,0.00,,,0.00,VWS V14.01,2013-12-18 22:30:00,
2013-12-18 16:36:00,46.0,23.1,29.88,South,180,4.0,4.0,40,0.00,,,0.00,VWS V14.01,2013-12-18 22:36:00,
2013-12-18 16:42:00,46.0,23.7,29.85,SSE,158,3.1,4.0,41,0.00,,,0.00,VWS V14.01,2013-12-18 22:42:00,
2013-12-18 16:47:00,45.7,23.4,29.85,South,180,3.1,4.0,41,0.00,,,0.00,VWS V14.01,2013-12-18 22:47:00,
2013-12-18 16:52:00,45.7,23.4,29.85,SSE,158,4.9,4.9,41,0.00,,,0.00,VWS V14.01,2013-12-18 22:52:00,
2013-12-18 16:57:00,45.9,23.5,29.85,SSE,158,4.9,4.9,41,0.00,,,0.00,VWS V14.01,2013-12-18 22:57:00,
2013-12-18 17:02:00,45.9,23.5,29.85,SSE,158,4.9,6.3,41,0.00,,,0.00,VWS V14.01,2013-12-18 23:02:00,
2013-12-18 17:07:00,45.7,23.4,29.85,South,180,0.0,0.0,41,0.00,,,0.00,VWS V14.01,2013-12-18 23:07:00,
2013-12-18 17:12:00,45.5,23.2,29.85,SSE,158,0.0,0.0,41,0.00,,,0.00,VWS V14.01,2013-12-18 23:12:00,
2013-12-18 17:17:00,45.3,23.0,29.85,SSW,202,4.0,6.3,41,0.00,,,0.00,VWS V14.01,2013-12-18 23:17:00,
2013-12-18 17:22:00,45.5,23.2,29.85,South,180,3.6,5.8,41,0.00,,,0.00,VWS V14.01,2013-12-18 23:22:00,
2013-12-18 17:27:00,45.5,23.2,29.85,South,180,0.0,5.8,41,0.00,,,0.00,VWS V14.01,2013-12-18 23:27:00,
2013-12-18 17:35:00,45.5,23.2,29.85,South,180,5.8,5.8,41,0.00,,,0.00,VWS V14.01,2013-12-18 23:35:00,
2013-12-18 17:41:00,45.5,23.2,29.85,SSE,158,6.3,6.3,41,0.00,,,0.00,VWS V14.01,2013-12-18 23:41:00,
2013-12-18 17:47:00,45.5,23.2,29.85,SSE,158,6.3,6.3,41,0.00,,,0.00,VWS V14.01,2013-12-18 23:47:00,
2013-12-18 17:52:00,45.5,23.2,29.85,SSE,158,6.3,6.3,41,0.00,,,0.00,VWS V14.01,2013-12-18 23:52:00,
2013-12-18 17:58:00,45.3,23.6,29.85,South,180,2.7,4.0,42,0.00,,,0.00,VWS V14.01,2013-12-18 23:58:00,
2013-12-18 18:04:00,45.3,23.6,29.88,SSE,158,3.6,3.6,42,0.00,,,0.00,VWS V14.01,2013-12-19 00:04:00,
2013-12-18 18:10:00,45.3,23.6,29.88,South,180,6.3,6.3,42,0.00,,,0.00,VWS V14.01,2013-12-19 00:10:00,
2013-12-18 18:15:00,45.5,23.8,29.85,South,180,6.3,7.2,42,0.00,,,0.00,VWS V14.01,2013-12-19 00:15:00,
2013-12-18 18:21:00,45.7,23.9,29.85,SSE,158,4.0,5.8,42,0.00,,,0.00,VWS V14.01,2013-12-19 00:21:00,
2013-12-18 18:27:00,45.5,23.8,29.85,South,180,8.1,8.1,42,0.00,,,0.00,VWS V14.01,2013-12-19 00:27:00,
2013-12-18 18:33:00,45.7,23.9,29.85,SSE,158,3.6,4.0,42,0.00,,,0.00,VWS V14.01,2013-12-19 00:33:00,
2013-12-18 18:39:00,45.7,23.9,29.85,South,180,4.0,4.0,42,0.00,,,0.00,VWS V14.01,2013-12-19 00:39:00,
2013-12-18 18:44:00,45.7,23.9,29.85,South,180,8.7,8.7,42,0.00,,,0.00,VWS V14.01,2013-12-19 00:44:00,
2013-12-18 18:50:00,45.7,23.9,29.85,SSE,158,5.8,6.3,42,0.00,,,0.00,VWS V14.01,2013-12-19 00:50:00,
2013-12-18 18:55:00,45.9,24.1,29.85,South,180,0.0,0.0,42,0.00,,,0.00,VWS V14.01,2013-12-19 00:55:00,
2013-12-18 19:00:00,45.9,24.1,29.85,SSE,158,4.0,5.8,42,0.00,,,0.00,VWS V14.01,2013-12-19 01:00:00,
2013-12-18 19:05:00,46.4,24.0,29.85,SSW,202,2.7,2.7,41,0.00,,,0.00,VWS V14.01,2013-12-19 01:05:00,
2013-12-18 19:10:00,46.4,24.0,29.85,SE,135,0.0,0.0,41,0.00,,,0.00,VWS V14.01,2013-12-19 01:10:00,
2013-12-18 19:15:00,46.6,23.6,29.85,South,180,5.4,5.4,40,0.00,,,0.00,VWS V14.01,2013-12-19 01:15:00,
2013-12-18 19:20:00,46.6,23.6,29.85,South,180,5.4,5.4,40,0.00,,,0.00,VWS V14.01,2013-12-19 01:20:00,
2013-12-18 19:25:00,46.6,23.6,29.85,SSW,202,0.0,0.0,40,0.00,,,0.00,VWS V14.01,2013-12-19 01:25:00,
2013-12-18 19:30:00,46.6,23.6,29.85,SSW,202,4.0,4.0,40,0.00,,,0.00,VWS V14.01,2013-12-19 01:30:00,
2013-12-18 19:35:00,46.6,23.6,29.85,SSE,158,7.2,7.2,40,0.00,,,0.00,VWS V14.01,2013-12-19 01:35:00,
2013-12-18 19:40:00,46.6,23.6,29.85,SSE,158,4.5,4.5,40,0.00,,,0.00,VWS V14.01,2013-12-19 01:40:00,
2013-12-18 19:45:00,46.6,23.6,29.85,SSW,202,2.7,4.0,40,0.00,,,0.00,VWS V14.01,2013-12-19 01:45:00,
2013-12-18 19:50:00,46.6,23.6,29.85,SSW,202,5.4,5.8,40,0.00,,,0.00,VWS V14.01,2013-12-19 01:50:00,
2013-12-18 19:55:00,46.6,23.6,29.85,South,180,4.5,8.3,40,0.00,,,0.00,VWS V14.01,2013-12-19 01:55:00,
2013-12-18 20:00:00,46.6,23.6,29.85,SSE,158,3.6,5.4,40,0.00,,,0.00,VWS V14.01,2013-12-19 02:00:00,
2013-12-18 20:08:00,46.6,23.6,29.85,SSE,158,6.3,6.3,40,0.00,,,0.00,VWS V14.01,2013-12-19 02:08:00,
2013-12-18 20:14:00,46.4,23.4,29.85,SSW,202,0.0,6.3,40,0.00,,,0.00,VWS V14.01,2013-12-19 02:14:00,
2013-12-18 20:19:00,46.0,23.7,29.85,SSW,202,0.0,3.1,41,0.00,,,0.00,VWS V14.01,2013-12-19 02:19:00,
2013-12-18 20:25:00,46.0,23.7,29.85,SSW,202,0.0,3.1,41,0.00,,,0.00,VWS V14.01,2013-12-19 02:25:00,
2013-12-18 20:31:00,46.2,23.8,29.85,South,180,0.0,0.0,41,0.00,,,0.00,VWS V14.01,2013-12-19 02:31:00,
2013-12-18 20:37:00,46.2,23.8,29.85,SSE,158,5.4,5.4,41,0.00,,,0.00,VWS V14.01,2013-12-19 02:37:00,
2013-12-18 20:43:00,46.0,23.7,29.85,South,180,2.7,5.4,41,0.00,,,0.00,VWS V14.01,2013-12-19 02:43:00,
2013-12-18 20:48:00,46.0,23.7,29.85,SE,135,5.4,5.4,41,0.00,,,0.00,VWS V14.01,2013-12-19 02:48:00,
2013-12-18 20:54:00,46.2,23.8,29.85,SSE,158,5.4,5.8,41,0.00,,,0.00,VWS V14.01,2013-12-19 02:54:00,
2013-12-18 20:59:00,45.9,23.5,29.85,South,180,0.0,3.6,41,0.00,,,0.00,VWS V14.01,2013-12-19 02:59:00,
2013-12-18 21:04:00,45.9,23.5,29.85,SSW,202,5.8,5.8,41,0.00,,,0.00,VWS V14.01,2013-12-19 03:04:00,
2013-12-18 21:09:00,46.0,23.7,29.85,SSW,202,4.9,7.6,41,0.00,,,0.00,VWS V14.01,2013-12-19 03:09:00,
2013-12-18 21:14:00,46.0,23.7,29.85,South,180,3.6,7.2,41,0.00,,,0.00,VWS V14.01,2013-12-19 03:14:00,
2013-12-18 21:19:00,45.9,23.5,29.85,South,180,3.1,4.0,41,0.00,,,0.00,VWS V14.01,2013-12-19 03:19:00,
2013-12-18 21:24:00,45.9,23.5,29.85,SSE,158,5.4,8.3,41,0.00,,,0.00,VWS V14.01,2013-12-19 03:24:00,
2013-12-18 21:29:00,45.7,23.4,29.85,South,180,2.7,2.7,41,0.00,,,0.00,VWS V14.01,2013-12-19 03:29:00,
2013-12-18 21:34:00,45.5,23.8,29.85,SSE,158,3.1,4.0,42,0.00,,,0.00,VWS V14.01,2013-12-19 03:34:00,
2013-12-18 21:39:00,45.3,23.6,29.85,SSW,202,0.0,3.6,42,0.00,,,0.00,VWS V14.01,2013-12-19 03:39:00,
2013-12-18 21:44:00,45.1,23.4,29.85,SSE,158,5.8,5.8,42,0.00,,,0.00,VWS V14.01,2013-12-19 03:44:00,
2013-12-18 21:49:00,45.0,23.3,29.85,SSW,202,3.1,3.6,42,0.00,,,0.00,VWS V14.01,2013-12-19 03:49:00,
2013-12-18 21:54:00,45.0,23.3,29.85,South,180,3.6,3.6,42,0.00,,,0.00,VWS V14.01,2013-12-19 03:54:00,
2013-12-18 21:59:00,45.0,23.3,29.85,SSE,158,3.6,3.6,42,0.00,,,0.00,VWS V14.01,2013-12-19 03:59:00,
2013-12-18 22:04:00,45.3,23.6,29.85,SSE,158,4.9,4.9,42,0.00,,,0.00,VWS V14.01,2013-12-19 04:04:00,
2013-12-18 22:09:00,45.3,23.6,29.85,South,180,3.6,4.9,42,0.00,,,0.00,VWS V14.01,2013-12-19 04:09:00,
2013-12-18 22:14:00,45.3,23.6,29.85,SSE,158,4.9,4.9,42,0.00,,,0.00,VWS V14.01,2013-12-19 04:14:00,
2013-12-18 22:19:00,45.3,23.6,29.85,SSE,158,4.0,6.3,42,0.00,,,0.00,VWS V14.01,2013-12-19 04:19:00,
2013-12-18 22:24:00,45.0,23.3,29.85,SE,135,4.9,4.9,42,0.00,,,0.00,VWS V14.01,2013-12-19 04:24:00,
2013-12-18 22:29:00,44.8,23.1,29.85,SE,135,5.4,5.4,42,0.00,,,0.00,VWS V14.01,2013-12-19 04:29:00,
2013-12-18 22:34:00,44.8,23.7,29.85,SE,135,3.6,4.0,43,0.00,,,0.00,VWS V14.01,2013-12-19 04:34:00,
2013-12-18 22:39:00,44.2,23.7,29.88,South,180,3.6,5.4,44,0.00,,,0.00,VWS V14.01,2013-12-19 04:39:00,
2013-12-18 22:44:00,44.4,23.9,29.88,South,180,4.9,5.4,44,0.00,,,0.00,VWS V14.01,2013-12-19 04:44:00,
2013-12-18 22:49:00,44.2,23.7,29.88,SSE,158,4.5,5.4,44,0.00,,,0.00,VWS V14.01,2013-12-19 04:49:00,
2013-12-18 22:54:00,44.2,23.7,29.88,South,180,3.6,5.8,44,0.00,,,0.00,VWS V14.01,2013-12-19 04:54:00,
2013-12-18 22:59:00,44.2,23.7,29.88,South,180,2.7,4.9,44,0.00,,,0.00,VWS V14.01,2013-12-19 04:59:00,
2013-12-18 23:01:00,44.1,23.6,29.88,South,180,2.7,3.6,44,0.00,,,0.00,VWS V14.01,2013-12-19 05:01:00,
2013-12-18 23:06:00,44.2,23.7,29.88,South,180,3.6,6.3,44,0.00,,,0.00,VWS V14.01,2013-12-19 05:06:00,
2013-12-18 23:11:00,44.2,23.7,29.88,South,180,3.1,3.1,44,0.00,,,0.00,VWS V14.01,2013-12-19 05:11:00,
2013-12-18 23:16:00,44.1,24.1,29.88,South,180,4.9,4.9,45,0.00,,,0.00,VWS V14.01,2013-12-19 05:16:00,
2013-12-18 23:21:00,44.1,24.1,29.85,SSE,158,4.0,4.0,45,0.00,,,0.00,VWS V14.01,2013-12-19 05:21:00,
2013-12-18 23:26:00,44.1,24.1,29.85,SSE,158,3.1,4.0,45,0.00,,,0.00,VWS V14.01,2013-12-19 05:26:00,
2013-12-18 23:31:00,44.1,24.1,29.85,SSE,158,3.1,3.1,45,0.00,,,0.00,VWS V14.01,2013-12-19 05:31:00,
2013-12-18 23:36:00,43.7,24.3,29.88,SSE,158,4.9,4.9,46,0.00,,,0.00,VWS V14.01,2013-12-19 05:36:00,
2013-12-18 23:41:00,43.7,24.3,29.88,SSE,158,4.9,4.9,46,0.00,,,0.00,VWS V14.01,2013-12-19 05:41:00,
2013-12-18 23:46:00,43.9,24.5,29.88,SSE,158,4.9,4.9,46,0.00,,,0.00,VWS V14.01,2013-12-19 05:46:00,
2013-12-18 23:51:00,43.7,24.3,29.85,SSE,158,0.0,0.0,46,0.00,,,0.00,VWS V14.01,2013-12-19 05:51:00,
2013-12-18 23:56:00,43.7,24.8,29.85,SSE,158,3.6,5.4,47,0.00,,,0.00,VWS V14.01,2013-12-19 05:56:00,